CPC3 weather

Public forecast

Using degrees Celsius for public forecast. Weather courtesy of forecast.io.

Closest aviation weather report (METAR) to Arthur (Walter's Field)

Closest report is Waterloo Airport, 23.0 nm (42.5 km) S. Retrieved 2020/08/10 16:00 UTC (26 minutes ago):

CYKF 101600Z AUTO 26012G17KT 9SM FEW039 28/21 A3001 RMK SLP159 DENSITY ALT 2700FT

Closest aviation forecast (TAF) to Arthur (Walter's Field)

Closest forecast is Waterloo Airport, 23.0 nm (42.5 km) S. Retrieved 2020/08/10 14:42 UTC (2 hours ago):

TAF TAF CYKF 101338Z 1014/1102 24010G20KT P6SM SCT040 BECMG 1100/1102 22008KT SKC RMK FCST BASED ON AUTO OBS NXT FCST BY 102000Z